createdAt,value
2023-04-24T00:01:40.457Z,69.83
2023-04-24T00:04:12.097Z,69.89
2023-04-24T00:06:43.724Z,70.11
2023-04-24T00:09:13.257Z,70.41
2023-04-24T00:11:41.451Z,70.79
2023-04-24T00:14:09.548Z,71.76
2023-04-24T00:16:37.843Z,73.05
2023-04-24T00:19:06.842Z,73.99
2023-04-24T00:21:35.061Z,74.15
2023-04-24T00:24:03.262Z,73.99
2023-04-24T00:26:32.706Z,74.71
2023-04-24T00:29:00.827Z,74.91
2023-04-24T00:31:28.991Z,75.42
2023-04-24T00:33:57.145Z,75.96
2023-04-24T00:36:26.014Z,76.63
2023-04-24T00:38:54.165Z,76.83
2023-04-24T00:41:22.918Z,76.63
2023-04-24T00:43:52.559Z,77.33
2023-04-24T00:46:21.422Z,77.55
2023-04-24T00:48:49.706Z,77.32
2023-04-24T00:51:17.777Z,77.74
2023-04-24T00:53:45.923Z,78.42
2023-04-24T00:56:14.243Z,77.36
2023-04-24T00:58:42.738Z,77.46
2023-04-24T01:01:12.769Z,77.02
2023-04-24T01:03:42.896Z,76.79
2023-04-24T01:06:12.678Z,77.34
2023-04-24T01:08:42.655Z,77.57
2023-04-24T01:11:10.783Z,77.21
2023-04-24T01:13:38.932Z,76.26
2023-04-24T01:16:07.448Z,76.57
2023-04-24T01:18:36.937Z,76.90
2023-04-24T01:21:07.604Z,76.71
2023-04-24T01:23:37.420Z,76.67
2023-04-24T01:26:05.920Z,76.70
2023-04-24T01:28:34.180Z,75.77
2023-04-24T01:31:02.400Z,75.70
2023-04-24T01:33:30.882Z,75.60
2023-04-24T01:35:59.702Z,75.68
2023-04-24T01:38:27.849Z,74.75
2023-04-24T01:40:57.368Z,74.89
2023-04-24T01:43:26.268Z,74.25
2023-04-24T01:45:54.373Z,73.96
2023-04-24T01:48:22.732Z,72.85
2023-04-24T01:50:50.936Z,73.73
2023-04-24T01:53:19.283Z,73.99
2023-04-24T01:55:47.495Z,74.95
2023-04-24T01:58:17.225Z,75.39
2023-04-24T02:00:45.369Z,75.49
2023-04-24T02:03:13.611Z,75.86
2023-04-24T02:05:41.852Z,74.73
2023-04-24T02:08:09.941Z,75.04
2023-04-24T02:10:38.033Z,75.19
2023-04-24T02:13:06.433Z,75.37
2023-04-24T02:15:36.910Z,74.98
2023-04-24T02:18:05.313Z,74.52
2023-04-24T02:20:34.997Z,75.39
2023-04-24T02:23:03.317Z,75.18
2023-04-24T02:25:31.565Z,74.96
2023-04-24T02:27:59.657Z,75.02
2023-04-24T02:30:27.823Z,75.71
2023-04-24T02:32:57.437Z,76.03
2023-04-24T02:35:25.645Z,75.77
2023-04-24T02:37:53.802Z,75.00
2023-04-24T02:40:22.040Z,75.62
2023-04-24T02:42:50.313Z,76.03
2023-04-24T02:45:18.590Z,76.02
2023-04-24T02:47:47.005Z,75.01
2023-04-24T02:50:16.473Z,74.67
2023-04-24T02:52:44.838Z,75.75
2023-04-24T02:55:13.297Z,74.85
2023-04-24T02:57:41.383Z,74.17
2023-04-24T03:00:11.198Z,74.93
2023-04-24T03:02:39.540Z,75.56
2023-04-24T03:05:08.648Z,74.80
2023-04-24T03:07:38.114Z,75.19
2023-04-24T03:10:07.976Z,75.50
2023-04-24T03:12:36.251Z,75.16
2023-04-24T03:15:05.251Z,75.61
2023-04-24T03:17:33.636Z,75.42
2023-04-24T03:20:01.862Z,75.72
2023-04-24T03:22:29.939Z,75.35
2023-04-24T03:24:59.439Z,74.75
2023-04-24T03:27:27.538Z,75.38
2023-04-24T03:29:56.525Z,74.99
2023-04-24T03:32:25.227Z,74.38
2023-04-24T03:34:55.012Z,73.38
2023-04-24T03:37:23.133Z,73.72
2023-04-24T03:39:51.338Z,74.27
2023-04-24T03:42:20.818Z,73.83
2023-04-24T03:44:49.254Z,74.38
2023-04-24T03:47:17.347Z,74.69
2023-04-24T03:49:45.485Z,75.00
2023-04-24T03:52:13.648Z,74.75
2023-04-24T03:54:41.738Z,73.46
2023-04-24T03:57:09.854Z,73.90
2023-04-24T03:59:39.325Z,73.73
2023-04-24T04:02:08.120Z,74.12
2023-04-24T04:04:36.601Z,74.73
2023-04-24T04:07:06.252Z,74.96
2023-04-24T04:09:34.851Z,75.03
2023-04-24T04:12:02.960Z,75.09
2023-04-24T04:14:31.071Z,74.71
2023-04-24T04:17:00.606Z,74.23
2023-04-24T04:19:28.693Z,74.66
2023-04-24T04:21:57.232Z,75.45
2023-04-24T04:24:25.598Z,75.68
2023-04-24T04:26:57.548Z,74.50
2023-04-24T04:29:26.933Z,74.06
2023-04-24T04:31:56.119Z,74.20
2023-04-24T04:34:25.833Z,73.89
2023-04-24T04:36:53.954Z,73.42
2023-04-24T04:39:22.271Z,73.80
2023-04-24T04:41:51.307Z,73.95
2023-04-24T04:44:19.402Z,73.38
2023-04-24T04:46:48.291Z,72.01
2023-04-24T04:49:17.621Z,72.27
2023-04-24T04:51:47.973Z,72.46
2023-04-24T04:54:16.745Z,71.58
2023-04-24T04:56:44.892Z,70.94
2023-04-24T04:59:13.287Z,71.24
2023-04-24T05:01:41.716Z,71.57
2023-04-24T05:04:10.077Z,71.31
2023-04-24T05:06:38.356Z,71.13
2023-04-24T05:09:08.493Z,69.54
2023-04-24T05:11:36.585Z,69.47
2023-04-24T05:14:04.689Z,69.48
2023-04-24T05:16:32.944Z,69.87
2023-04-24T05:19:01.079Z,69.80
2023-04-24T05:21:29.174Z,69.08
2023-04-24T05:23:57.269Z,68.31
2023-04-24T05:26:26.813Z,67.89
2023-04-24T05:28:54.888Z,67.09
2023-04-24T05:31:23.202Z,67.32
2023-04-24T05:33:51.353Z,66.82
2023-04-24T05:36:19.578Z,66.35
2023-04-24T05:38:47.670Z,66.01
2023-04-24T05:41:15.980Z,65.56
2023-04-24T05:43:45.549Z,65.36
2023-04-24T05:46:14.511Z,65.79
2023-04-24T05:48:42.634Z,66.29
2023-04-24T05:51:12.107Z,65.65
2023-04-24T05:53:40.305Z,66.28
2023-04-24T05:56:08.560Z,65.96
2023-04-24T05:58:36.678Z,64.77
2023-04-24T06:01:06.276Z,64.52
2023-04-24T06:03:34.794Z,63.82
2023-04-24T06:06:03.219Z,63.12
2023-04-24T06:08:31.359Z,62.88
2023-04-24T06:10:59.490Z,62.46
2023-04-24T06:13:27.659Z,62.26
2023-04-24T06:15:56.177Z,61.81
2023-04-24T06:18:25.621Z,62.15
2023-04-24T06:20:53.800Z,62.57
2023-04-24T06:23:21.943Z,62.89
2023-04-24T06:25:50.074Z,63.07
2023-04-24T06:28:18.223Z,63.57
2023-04-24T06:30:46.348Z,63.61
2023-04-24T06:35:48.618Z,63.85
2023-04-24T06:38:17.579Z,62.69
2023-04-24T06:40:45.903Z,63.50
2023-04-24T06:43:14.028Z,63.54
2023-04-24T06:45:42.174Z,64.00
2023-04-24T06:48:10.410Z,63.87
2023-04-24T06:50:38.637Z,63.74
2023-04-24T06:53:08.071Z,63.93
2023-04-24T06:55:37.916Z,63.87
2023-04-24T06:58:07.041Z,63.07
2023-04-24T07:00:35.191Z,62.82
2023-04-24T07:03:03.570Z,62.54
2023-04-24T07:05:31.793Z,62.54
2023-04-24T07:08:00.237Z,63.28
2023-04-24T07:10:30.221Z,63.35
2023-04-24T07:12:58.666Z,62.45
2023-04-24T07:15:27.346Z,61.97
2023-04-24T07:17:55.549Z,62.58
2023-04-24T07:20:23.892Z,62.74
2023-04-24T07:22:52.726Z,62.70
2023-04-24T07:25:21.254Z,62.28
2023-04-24T07:27:51.130Z,62.39
2023-04-24T07:30:19.253Z,61.26
2023-04-24T07:32:47.396Z,61.07
2023-04-24T07:35:15.537Z,60.19
2023-04-24T07:37:46.652Z,60.74
2023-04-24T07:40:14.922Z,59.56
2023-04-24T07:42:44.757Z,59.19
2023-04-24T07:45:14.220Z,58.92
2023-04-24T07:47:44.855Z,58.61
2023-04-24T07:50:13.705Z,58.54
2023-04-24T07:52:41.784Z,58.15
2023-04-24T07:55:10.053Z,58.19
2023-04-24T07:57:38.733Z,57.79
2023-04-24T08:00:08.885Z,57.73
2023-04-24T08:02:38.430Z,58.12
2023-04-24T08:05:07.879Z,58.54
2023-04-24T08:07:37.000Z,58.61
2023-04-24T08:10:06.206Z,56.77
2023-04-24T08:12:34.318Z,54.91
2023-04-24T08:15:02.427Z,54.53
2023-04-24T08:17:32.625Z,53.95
2023-04-24T08:20:03.353Z,54.18
2023-04-24T08:22:31.551Z,53.00
2023-04-24T08:25:02.805Z,52.68
2023-04-24T08:27:30.925Z,51.98
2023-04-24T08:29:59.935Z,50.81
2023-04-24T08:32:29.827Z,49.86
2023-04-24T08:34:58.498Z,49.97
2023-04-24T08:37:29.616Z,47.96
2023-04-24T08:39:57.970Z,48.41
2023-04-24T08:42:26.709Z,49.26
2023-04-24T08:44:54.932Z,49.28
2023-04-24T08:47:25.784Z,50.37
2023-04-24T08:49:54.744Z,50.06
2023-04-24T08:52:23.693Z,50.24
2023-04-24T08:54:55.724Z,51.12
2023-04-24T08:57:24.810Z,51.41
2023-04-24T08:59:53.935Z,52.06
2023-04-24T09:02:23.485Z,50.97
2023-04-24T09:04:53.150Z,50.97
2023-04-24T09:07:24.273Z,50.05
2023-04-24T09:09:55.140Z,50.96
2023-04-24T09:12:23.531Z,50.52
2023-04-24T09:14:53.311Z,50.50
2023-04-24T09:17:23.770Z,50.69
2023-04-24T09:19:52.424Z,50.95
2023-04-24T09:22:20.781Z,50.27
2023-04-24T09:24:50.316Z,50.64
2023-04-24T09:27:20.420Z,51.03
2023-04-24T09:29:56.848Z,51.68
2023-04-24T09:32:27.176Z,51.86
2023-04-24T09:35:13.392Z,52.51
2023-04-24T09:37:43.593Z,53.17
2023-04-24T09:40:18.359Z,53.08
2023-04-24T09:42:53.186Z,52.68
2023-04-24T09:45:22.436Z,53.15
2023-04-24T09:47:55.299Z,52.32
2023-04-24T09:50:23.839Z,51.14
2023-04-24T09:53:01.008Z,52.09
2023-04-24T09:55:29.714Z,50.76
2023-04-24T09:58:01.194Z,50.76
2023-04-24T10:00:32.109Z,48.41
2023-04-24T10:03:02.293Z,49.10
2023-04-24T10:05:32.491Z,47.99
2023-04-24T10:08:07.285Z,48.05
2023-04-24T10:10:41.045Z,48.46
2023-04-24T10:13:12.615Z,47.33
2023-04-24T10:15:42.931Z,47.07
2023-04-24T10:18:12.325Z,45.75
2023-04-24T10:20:42.242Z,45.29
2023-04-24T10:23:10.531Z,45.05
2023-04-24T10:25:38.974Z,43.18
2023-04-24T10:28:09.762Z,43.54
2023-04-24T10:30:45.018Z,43.04
2023-04-24T10:33:14.296Z,43.48
2023-04-24T10:35:52.820Z,44.70
2023-04-24T10:38:28.046Z,44.62
2023-04-24T10:41:10.295Z,44.02
2023-04-24T10:43:38.590Z,44.99
2023-04-24T10:46:09.538Z,44.55
2023-04-24T10:48:43.584Z,44.57
2023-04-24T10:51:15.866Z,44.61
2023-04-24T10:53:43.897Z,44.79
2023-04-24T10:56:13.151Z,43.82
2023-04-24T10:58:45.647Z,43.86
2023-04-24T11:01:28.966Z,44.42
2023-04-24T11:03:59.481Z,43.07
2023-04-24T11:06:37.007Z,42.06
2023-04-24T11:09:08.213Z,42.21
2023-04-24T11:11:38.412Z,41.32
2023-04-24T11:14:11.546Z,42.16
2023-04-24T11:16:53.909Z,41.06
2023-04-24T11:19:25.849Z,41.55
2023-04-24T11:22:01.379Z,41.94
2023-04-24T11:24:39.183Z,41.79
2023-04-24T11:27:18.008Z,40.19
2023-04-24T11:29:51.074Z,39.44
2023-04-24T11:32:29.201Z,38.15
2023-04-24T11:34:59.483Z,38.73
2023-04-24T11:37:31.505Z,38.49
2023-04-24T11:40:01.540Z,38.91
2023-04-24T11:42:35.286Z,38.81
2023-04-24T11:45:03.682Z,39.16
2023-04-24T11:47:34.965Z,39.45
2023-04-24T11:50:05.499Z,39.23
2023-04-24T11:52:35.529Z,39.25
2023-04-24T11:55:04.642Z,39.08
2023-04-24T11:57:35.285Z,37.88
2023-04-24T12:00:05.620Z,38.45
2023-04-24T12:02:36.929Z,38.27
2023-04-24T12:05:07.737Z,37.96
2023-04-24T12:07:44.652Z,38.13
2023-04-24T12:10:13.195Z,38.34
2023-04-24T12:12:41.380Z,38.63
2023-04-24T12:15:11.352Z,39.47
2023-04-24T12:17:44.303Z,40.14
2023-04-24T12:20:14.187Z,39.40
2023-04-24T12:22:51.371Z,39.28
2023-04-24T12:25:21.666Z,39.61
2023-04-24T12:27:56.848Z,38.64
2023-04-24T12:30:31.443Z,38.70
2023-04-24T12:33:04.489Z,39.20
2023-04-24T12:35:36.507Z,39.38
2023-04-24T12:38:08.989Z,39.11
2023-04-24T12:40:37.214Z,38.27
2023-04-24T12:43:16.595Z,38.68
2023-04-24T12:45:45.758Z,38.83
2023-04-24T12:48:16.013Z,38.44
2023-04-24T12:50:47.056Z,38.61
2023-04-24T12:53:16.099Z,38.15
2023-04-24T12:55:45.474Z,38.40
2023-04-24T12:58:13.541Z,37.56
2023-04-24T13:00:44.257Z,38.71
2023-04-24T13:03:14.050Z,37.96
2023-04-24T13:05:42.988Z,38.45
2023-04-24T13:08:11.058Z,37.40
2023-04-24T13:10:39.186Z,37.55
2023-04-24T13:13:07.241Z,38.08
2023-04-24T13:15:35.330Z,38.34
2023-04-24T13:18:03.580Z,37.36
2023-04-24T13:20:33.080Z,37.47
2023-04-24T13:23:01.159Z,37.43
2023-04-24T13:25:29.316Z,37.54
2023-04-24T13:27:57.350Z,37.57
2023-04-24T13:30:25.441Z,37.69
2023-04-24T13:32:53.566Z,37.86
2023-04-24T13:35:21.665Z,36.57
2023-04-24T13:37:51.120Z,36.47
2023-04-24T13:40:19.372Z,37.07
2023-04-24T13:42:47.514Z,37.69
2023-04-24T13:45:24.760Z,38.15
2023-04-24T13:47:54.570Z,37.57
2023-04-24T13:50:23.157Z,38.10
2023-04-24T13:52:52.600Z,38.49
2023-04-24T13:55:20.955Z,38.65
2023-04-24T13:57:49.035Z,39.44
2023-04-24T14:00:18.817Z,39.40
2023-04-24T14:02:47.015Z,40.29
2023-04-24T14:05:16.105Z,40.60
2023-04-24T14:07:44.200Z,40.03
2023-04-24T14:10:13.770Z,39.42
2023-04-24T14:12:42.172Z,38.37
2023-04-24T14:15:11.366Z,38.22
2023-04-24T14:17:39.451Z,37.89
2023-04-24T14:20:09.917Z,38.38
2023-04-24T14:22:37.986Z,39.08
2023-04-24T14:25:07.450Z,39.95
2023-04-24T14:27:36.976Z,40.59
2023-04-24T14:30:06.717Z,40.69
2023-04-24T14:32:34.826Z,41.00
2023-04-24T14:35:03.005Z,41.32
2023-04-24T14:37:31.752Z,40.33
2023-04-24T14:40:11.899Z,41.00
2023-04-24T14:42:49.557Z,41.78
2023-04-24T14:45:17.704Z,41.79
2023-04-24T14:47:46.338Z,41.07
2023-04-24T14:50:14.437Z,41.18
2023-04-24T14:52:42.535Z,41.58
2023-04-24T14:55:12.568Z,42.13
2023-04-24T14:57:41.127Z,42.92
2023-04-24T15:00:12.410Z,44.13
2023-04-24T15:02:42.910Z,44.31
2023-04-24T15:05:11.636Z,44.21
2023-04-24T15:07:40.200Z,45.13
2023-04-24T15:10:10.378Z,45.34
2023-04-24T15:12:38.579Z,45.39
2023-04-24T15:15:08.784Z,44.74
2023-04-24T15:17:38.289Z,44.12
2023-04-24T15:20:08.512Z,44.77
2023-04-24T15:22:37.256Z,45.22
2023-04-24T15:25:06.788Z,45.26
2023-04-24T15:27:43.354Z,46.46
2023-04-24T15:30:12.931Z,46.62
2023-04-24T15:32:43.116Z,47.17
2023-04-24T15:35:12.028Z,46.88
2023-04-24T15:37:41.134Z,46.96
2023-04-24T15:40:12.142Z,47.19
2023-04-24T15:42:40.908Z,47.10
2023-04-24T15:45:10.831Z,46.81
2023-04-24T15:47:39.150Z,47.05
2023-04-24T15:50:14.188Z,46.32
2023-04-24T15:52:43.004Z,45.58
2023-04-24T15:55:11.899Z,45.26
2023-04-24T15:57:40.272Z,45.43
2023-04-24T16:00:10.979Z,45.79
2023-04-24T16:02:39.442Z,44.74
2023-04-24T16:05:09.748Z,44.23
2023-04-24T16:07:40.101Z,44.71
2023-04-24T16:10:09.237Z,44.76
2023-04-24T16:12:37.444Z,45.11
2023-04-24T16:15:07.034Z,44.93
2023-04-24T16:17:35.119Z,45.37
2023-04-24T16:20:03.480Z,45.77
2023-04-24T16:22:32.878Z,46.12
2023-04-24T16:25:00.962Z,46.27
2023-04-24T16:27:29.270Z,45.48
2023-04-24T16:29:57.469Z,45.69
2023-04-24T16:32:25.733Z,46.14
2023-04-24T16:34:54.033Z,46.26
2023-04-24T16:37:22.235Z,47.44
2023-04-24T16:39:51.786Z,47.53
2023-04-24T16:42:19.815Z,47.67
2023-04-24T16:44:48.697Z,46.78
2023-04-24T16:47:17.264Z,47.26
2023-04-24T16:49:47.580Z,47.56
2023-04-24T16:52:16.273Z,48.00
2023-04-24T16:54:44.309Z,47.97
2023-04-24T16:57:13.834Z,47.69
2023-04-24T16:59:42.005Z,48.17
2023-04-24T17:02:10.835Z,48.12
2023-04-24T17:04:39.076Z,48.43
2023-04-24T17:07:07.190Z,48.00
2023-04-24T17:09:35.338Z,48.46
2023-04-24T17:12:03.554Z,48.62
2023-04-24T17:14:32.989Z,48.87
2023-04-24T17:17:01.094Z,49.21
2023-04-24T17:19:29.509Z,49.14
2023-04-24T17:21:58.016Z,49.44
2023-04-24T17:24:26.212Z,49.98
2023-04-24T17:26:56.588Z,49.69
2023-04-24T17:29:29.736Z,50.76
2023-04-24T17:31:59.163Z,50.18
2023-04-24T17:34:27.306Z,50.52
2023-04-24T17:36:55.354Z,51.13
2023-04-24T17:39:23.492Z,50.91
2023-04-24T17:41:51.713Z,50.74
2023-04-24T17:44:19.739Z,51.22
2023-04-24T17:46:47.770Z,51.46
2023-04-24T17:49:17.194Z,51.80
2023-04-24T17:51:45.400Z,52.04
2023-04-24T17:54:13.480Z,51.90
2023-04-24T17:56:41.672Z,51.68
2023-04-24T17:59:09.751Z,52.42
2023-04-24T18:01:37.869Z,52.42
2023-04-24T18:04:06.099Z,52.39
2023-04-24T18:06:35.701Z,52.77
2023-04-24T18:09:04.168Z,52.94
2023-04-24T18:11:32.443Z,53.96
2023-04-24T18:14:00.692Z,53.82
2023-04-24T18:16:28.966Z,54.53
2023-04-24T18:18:57.163Z,54.86
2023-04-24T18:21:25.512Z,55.21
2023-04-24T18:23:55.153Z,55.42
2023-04-24T18:26:23.278Z,56.57
2023-04-24T18:28:51.446Z,55.94
2023-04-24T18:31:19.772Z,57.17
2023-04-24T18:33:47.929Z,57.56
2023-04-24T18:36:15.981Z,57.87
2023-04-24T18:38:44.275Z,57.95
2023-04-24T18:41:14.308Z,58.03
2023-04-24T18:43:42.417Z,59.20
2023-04-24T18:46:10.481Z,59.33
2023-04-24T18:48:38.621Z,59.24
2023-04-24T18:51:06.692Z,59.69
2023-04-24T18:53:34.754Z,59.64
2023-04-24T18:56:02.927Z,59.69
2023-04-24T18:58:32.358Z,60.35
2023-04-24T19:01:00.638Z,60.20
2023-04-24T19:03:29.845Z,60.21
2023-04-24T19:05:58.036Z,59.80
2023-04-24T19:08:26.162Z,59.45
2023-04-24T19:10:54.200Z,59.02
2023-04-24T19:13:22.212Z,58.51
2023-04-24T19:15:51.601Z,56.87
2023-04-24T19:18:19.621Z,56.65
2023-04-24T19:20:47.786Z,55.12
2023-04-24T19:23:15.899Z,54.64
2023-04-24T19:25:43.928Z,54.76
2023-04-24T19:28:12.301Z,54.12
2023-04-24T19:30:40.640Z,54.22
2023-04-24T19:33:10.226Z,55.09
2023-04-24T19:35:39.008Z,55.60
2023-04-24T19:38:07.154Z,56.08
2023-04-24T19:40:35.259Z,55.38
2023-04-24T19:43:03.297Z,55.94
2023-04-24T19:45:31.362Z,56.55
2023-04-24T19:47:59.932Z,56.49
2023-04-24T19:50:29.474Z,56.95
2023-04-24T19:52:57.514Z,57.02
2023-04-24T19:55:25.596Z,57.43
2023-04-24T19:57:53.613Z,57.15
2023-04-24T20:00:21.796Z,57.49
2023-04-24T20:02:50.026Z,57.63
2023-04-24T20:05:18.414Z,58.07
2023-04-24T20:07:47.939Z,58.15
2023-04-24T20:10:16.019Z,57.67
2023-04-24T20:12:44.191Z,58.09
2023-04-24T20:15:13.396Z,59.13
2023-04-24T20:17:41.712Z,58.75
2023-04-24T20:20:11.476Z,59.53
2023-04-24T20:22:40.267Z,59.86
2023-04-24T20:25:12.952Z,59.63
2023-04-24T20:27:42.005Z,59.40
2023-04-24T20:30:13.152Z,59.56
2023-04-24T20:32:41.903Z,59.19
2023-04-24T20:35:11.873Z,59.17
2023-04-24T20:37:40.410Z,59.53
2023-04-24T20:40:13.577Z,59.13
2023-04-24T20:42:41.800Z,58.66
2023-04-24T20:45:11.999Z,58.46
2023-04-24T20:47:40.125Z,58.56
2023-04-24T20:50:09.726Z,58.07
2023-04-24T20:52:37.792Z,57.90
2023-04-24T20:55:07.380Z,58.18
2023-04-24T20:57:36.900Z,57.43
2023-04-24T21:00:08.609Z,57.52
2023-04-24T21:02:36.825Z,57.95
2023-04-24T21:05:05.453Z,57.70
2023-04-24T21:07:34.054Z,57.99
2023-04-24T21:10:02.340Z,58.75
2023-04-24T21:12:31.580Z,59.29
2023-04-24T21:15:01.013Z,58.82
2023-04-24T21:17:29.177Z,59.60
2023-04-24T21:19:57.311Z,59.60
2023-04-24T21:22:25.517Z,59.95
2023-04-24T21:24:53.539Z,59.45
2023-04-24T21:27:21.652Z,60.00
2023-04-24T21:29:49.752Z,60.70
2023-04-24T21:32:19.530Z,60.84
2023-04-24T21:34:47.862Z,60.84
2023-04-24T21:37:16.287Z,60.63
2023-04-24T21:39:44.373Z,61.55
2023-04-24T21:42:12.604Z,60.43
2023-04-24T21:44:40.730Z,60.51
2023-04-24T21:47:08.944Z,59.83
2023-04-24T21:49:38.399Z,60.02
2023-04-24T21:52:06.465Z,60.81
2023-04-24T21:54:35.704Z,60.59
2023-04-24T21:57:03.856Z,60.39
2023-04-24T21:59:32.569Z,60.33
2023-04-24T22:02:00.774Z,59.71
2023-04-24T22:04:29.151Z,59.06
2023-04-24T22:06:58.794Z,58.92
2023-04-24T22:09:26.937Z,57.94
2023-04-24T22:11:55.916Z,58.14
2023-04-24T22:14:24.070Z,57.67
2023-04-24T22:16:52.173Z,57.16
2023-04-24T22:19:20.260Z,57.76
2023-04-24T22:21:48.479Z,57.40
2023-04-24T22:24:20.047Z,58.29
2023-04-24T22:26:48.270Z,57.81
2023-04-24T22:29:16.405Z,58.13
2023-04-24T22:31:44.581Z,56.91
2023-04-24T22:34:12.773Z,58.21
2023-04-24T22:36:40.912Z,59.18
2023-04-24T22:39:10.497Z,59.61
2023-04-24T22:41:39.987Z,60.05
2023-04-24T22:44:08.346Z,59.53
2023-04-24T22:46:36.476Z,59.52
2023-04-24T22:49:05.031Z,59.96
2023-04-24T22:51:34.196Z,60.81
2023-04-24T22:54:04.207Z,61.68
2023-04-24T22:56:32.745Z,61.22
2023-04-24T22:59:02.235Z,61.84
2023-04-24T23:01:30.587Z,62.25
2023-04-24T23:03:58.890Z,62.67
2023-04-24T23:06:28.025Z,63.07
2023-04-24T23:08:56.129Z,63.97
2023-04-24T23:11:24.328Z,64.20
2023-04-24T23:13:52.481Z,64.34
2023-04-24T23:16:22.485Z,64.38
2023-04-24T23:18:50.621Z,64.72
2023-04-24T23:21:18.742Z,64.74
2023-04-24T23:23:47.326Z,65.39
2023-04-24T23:26:15.598Z,65.75
2023-04-24T23:28:43.704Z,66.23
2023-04-24T23:31:11.833Z,66.00
2023-04-24T23:33:41.322Z,65.84
2023-04-24T23:36:11.565Z,65.87
2023-04-24T23:38:49.491Z,65.53
2023-04-24T23:41:18.628Z,65.48
2023-04-24T23:43:46.969Z,65.64
2023-04-24T23:46:15.453Z,65.60
2023-04-24T23:48:45.045Z,65.36
2023-04-24T23:51:13.269Z,64.78
2023-04-24T23:53:41.628Z,63.72
2023-04-24T23:56:09.780Z,63.94
2023-04-24T23:58:37.874Z,64.60
